Denpasar, Indonesia

4:51 AM WITA on February 11, 2016 (GMT +0800)
Ngurah Rai (Bali) Interna | | Change Station
CLOSE
Current Station
Airport
Location: Ngurah Rai (Bali) Interna,
Elevation: 13 ft
Nearby Weather Stations

Elev 13 ft 8.75 °S, 115.17 °E | Updated 21 minutes ago

Partly Cloudy
Partly Cloudy
81 °F
Feels Like 87 °F
N
1
Wind Variable Wind from Variable

Today
High -- | Low -- °F
--% Chance of Precip.
Yesterday
High -- | Low -- °F
Precip. -- in
Pressure 29.77 in
Visibility 6.2 miles
Clouds Few 1700 ft
Heat Index 87 °F
Dew Point 77 °F
Humidity 89%
Rainfall 0.00 in
Snow Depth Not available.
6:21 AM 6:45 PM
Waxing Crescent, 7% visible
METAR WADD 102030Z VRB01KT 9999 FEW017 27/25 Q1008
Pressure 29.77 in
Visibility 6.2 miles
Clouds Few 1700 ft
Heat Index 87 °F
Dew Point 77 °F
Humidity 89%
Rainfall 0.00 in
Snow Depth Not available.
6:21 AM 6:45 PM
Waxing Crescent, 7% visible
METAR WADD 102030Z VRB01KT 9999 FEW017 27/25 Q1008

10-Day Weather Forecast

No radar image for this location.
×

Almanac

Astronomy

Feb. 11, 2016 Rise Set
Actual Time
Civil Twilight
Nautical Twilight
Astronomical Twilight
Moon
Length of Visible Light
Length of Day
Tomorrow will be .
, % of the Moon is Illuminated

Today's Extremes

Country Highs Country Lows

Community

WunderPhotos

Upload Photos

1,891,945 photos uploaded!

WunderBlog® & News

Nearby

Air Quality

  Air Quality AQ Index Pollutant
Not available.

Snow Depth

Station Depth Elevation

Earthquake Activity

City Distance Mag. Time & Date
Minimum magnitude displayed is 2.5.

Coastal Water Temperatures

Place Temperature

Stations

Nearby Weather Stations

Station Location Temp. Windchill Dew Point Humidity Wind Precip. Elev Updated Type